Etusivu
METAR-TAF:

METAR-TAF

Lentoasemat :

Akulivik, Quebec, Kanada

Leveyspiiri: 60-49N, Pituuspiiri: 078-09W, korkeus merenpinnasta: 20 m

Tämänhetkinen sää

Tämä raportti tehtiin 6 tuntia ja 12 minuuttia sitten, kello 21.00 UTC
Tuuli 16 kn pohjoisesta/koillisesta
Lämpötila 3°C
Kosteus 87%
Ilmanpaine 1007 hPa
Näkyvyys: 12.9 km
Hajanaisia pilviä 1200 ft:n korkeudessa
Pilvistä 6000 ft:n korkeudessa

METAR: CYKO 162100Z 02016KT 8SM SCT012 OVC060 03/01 A2975 RMK SC4SC4 SN CVR NIL LAST STFD OBS/NXT 171200UTC SLP078

Aika: 23:12 (03:12 UTC)


TAF: puuttuu

Säähavainnot ja -ennusteet yli 4000 lentoasemalta (METAR- ja TAF-raportit).

Käytössä olevat sääasemat on merkitty karttaan keltaisilla ja punaisilla pisteillä.

Aseta hiiri pisteen päälle nähdäksesi sääaseman nimen.

Klikkaa sitten nähdäksesi säähavainnot ja -ennusteet.

Kartan vaihtaminen: klikkaa mustalla rastilla varustettuja vihreitä pisteitä, niin voit zoomata sisään; viivalla varustettua vihreää pistettä, niin voit zoomata ulos tai vihreitä nuolia, niin pääset viereisille kartoille.


METAR-TAF: